sensor_id;sensor_type;location;lat;lon;timestamp;P1;durP1;ratioP1;P2;durP2;ratioP2
73104;SDS011;61296;50.526;30.792;2024-01-30T00:12:37;26.55;;;10.80;;
73104;SDS011;61296;50.526;30.792;2024-01-30T00:28:10;24.50;;;10.45;;
73104;SDS011;61296;50.526;30.792;2024-01-30T00:43:43;27.67;;;11.60;;
73104;SDS011;61296;50.526;30.792;2024-01-30T00:59:16;25.92;;;10.20;;
73104;SDS011;61296;50.526;30.792;2024-01-30T01:14:48;20.17;;;8.95;;
73104;SDS011;61296;50.526;30.792;2024-01-30T01:30:21;27.15;;;11.25;;
73104;SDS011;61296;50.526;30.792;2024-01-30T01:45:55;27.80;;;10.75;;
73104;SDS011;61296;50.526;30.792;2024-01-30T02:01:28;27.17;;;10.57;;
73104;SDS011;61296;50.526;30.792;2024-01-30T02:17:02;26.48;;;11.23;;
73104;SDS011;61296;50.526;30.792;2024-01-30T02:32:34;28.98;;;10.80;;
73104;SDS011;61296;50.526;30.792;2024-01-30T02:48:08;22.27;;;9.55;;
73104;SDS011;61296;50.526;30.792;2024-01-30T03:03:40;19.88;;;8.82;;
73104;SDS011;61296;50.526;30.792;2024-01-30T03:19:14;26.25;;;9.80;;
73104;SDS011;61296;50.526;30.792;2024-01-30T03:34:48;23.27;;;10.55;;
73104;SDS011;61296;50.526;30.792;2024-01-30T03:50:21;27.77;;;10.80;;
73104;SDS011;61296;50.526;30.792;2024-01-30T04:05:54;31.08;;;12.98;;
73104;SDS011;61296;50.526;30.792;2024-01-30T04:21:27;25.38;;;9.57;;
73104;SDS011;61296;50.526;30.792;2024-01-30T04:37:01;21.48;;;9.18;;
73104;SDS011;61296;50.526;30.792;2024-01-30T04:52:35;22.50;;;9.65;;
73104;SDS011;61296;50.526;30.792;2024-01-30T05:08:08;28.27;;;10.65;;
73104;SDS011;61296;50.526;30.792;2024-01-30T05:23:40;22.02;;;10.38;;
73104;SDS011;61296;50.526;30.792;2024-01-30T05:39:14;26.48;;;11.77;;
73104;SDS011;61296;50.526;30.792;2024-01-30T05:54:47;27.52;;;10.77;;
73104;SDS011;61296;50.526;30.792;2024-01-30T06:10:20;28.70;;;12.45;;
73104;SDS011;61296;50.526;30.792;2024-01-30T06:25:53;27.35;;;11.48;;
73104;SDS011;61296;50.526;30.792;2024-01-30T06:41:26;23.00;;;10.55;;
73104;SDS011;61296;50.526;30.792;2024-01-30T06:56:58;28.92;;;11.00;;
73104;SDS011;61296;50.526;30.792;2024-01-30T07:12:31;27.45;;;12.07;;
73104;SDS011;61296;50.526;30.792;2024-01-30T07:28:04;23.75;;;10.68;;
73104;SDS011;61296;50.526;30.792;2024-01-30T07:43:38;24.83;;;11.10;;
73104;SDS011;61296;50.526;30.792;2024-01-30T07:59:12;23.17;;;9.93;;
73104;SDS011;61296;50.526;30.792;2024-01-30T08:14:44;14.20;;;6.82;;
73104;SDS011;61296;50.526;30.792;2024-01-30T08:30:17;20.67;;;8.27;;
73104;SDS011;61296;50.526;30.792;2024-01-30T09:02:52;21.90;;;8.83;;
73104;SDS011;61296;50.526;30.792;2024-01-30T09:18:25;19.52;;;8.52;;
73104;SDS011;61296;50.526;30.792;2024-01-30T09:33:57;21.95;;;9.52;;
73104;SDS011;61296;50.526;30.792;2024-01-30T09:49:32;22.75;;;9.32;;
73104;SDS011;61296;50.526;30.792;2024-01-30T10:05:06;20.95;;;9.32;;
73104;SDS011;61296;50.526;30.792;2024-01-30T10:20:40;22.95;;;9.80;;
73104;SDS011;61296;50.526;30.792;2024-01-30T10:36:14;19.85;;;9.10;;
73104;SDS011;61296;50.526;30.792;2024-01-30T10:51:47;18.33;;;9.18;;
73104;SDS011;61296;50.526;30.792;2024-01-30T11:22:59;17.73;;;7.30;;
73104;SDS011;61296;50.526;30.792;2024-01-30T11:38:38;18.17;;;8.38;;
73104;SDS011;61296;50.526;30.792;2024-01-30T11:54:12;16.35;;;7.78;;
73104;SDS011;61296;50.526;30.792;2024-01-30T12:09:55;16.58;;;7.43;;
73104;SDS011;61296;50.526;30.792;2024-01-30T12:25:28;17.80;;;8.10;;
73104;SDS011;61296;50.526;30.792;2024-01-30T12:41:03;22.73;;;8.32;;
73104;SDS011;61296;50.526;30.792;2024-01-30T12:56:37;19.08;;;8.18;;
73104;SDS011;61296;50.526;30.792;2024-01-30T13:12:09;19.13;;;7.63;;
73104;SDS011;61296;50.526;30.792;2024-01-30T13:27:43;17.70;;;8.77;;
73104;SDS011;61296;50.526;30.792;2024-01-30T13:43:16;21.55;;;8.55;;
73104;SDS011;61296;50.526;30.792;2024-01-30T13:58:52;21.52;;;7.88;;
73104;SDS011;61296;50.526;30.792;2024-01-30T14:14:28;21.50;;;8.93;;
73104;SDS011;61296;50.526;30.792;2024-01-30T14:30:00;20.13;;;8.57;;
73104;SDS011;61296;50.526;30.792;2024-01-30T14:45:33;19.05;;;8.25;;
73104;SDS011;61296;50.526;30.792;2024-01-30T15:01:08;21.17;;;8.90;;
73104;SDS011;61296;50.526;30.792;2024-01-30T15:16:41;21.77;;;8.70;;
73104;SDS011;61296;50.526;30.792;2024-01-30T15:32:19;26.83;;;9.15;;
73104;SDS011;61296;50.526;30.792;2024-01-30T15:47:52;24.20;;;10.93;;
73104;SDS011;61296;50.526;30.792;2024-01-30T16:03:28;21.85;;;8.52;;
73104;SDS011;61296;50.526;30.792;2024-01-30T16:18:48;22.42;;;9.95;;
73104;SDS011;61296;50.526;30.792;2024-01-30T16:34:21;21.98;;;10.63;;
73104;SDS011;61296;50.526;30.792;2024-01-30T16:49:55;23.85;;;11.32;;
73104;SDS011;61296;50.526;30.792;2024-01-30T17:05:27;24.15;;;11.07;;
73104;SDS011;61296;50.526;30.792;2024-01-30T17:20:59;24.20;;;10.00;;
73104;SDS011;61296;50.526;30.792;2024-01-30T17:36:32;22.55;;;9.90;;
73104;SDS011;61296;50.526;30.792;2024-01-30T17:52:08;22.53;;;10.57;;
73104;SDS011;61296;50.526;30.792;2024-01-30T18:07:42;23.70;;;9.73;;
73104;SDS011;61296;50.526;30.792;2024-01-30T18:23:17;24.25;;;11.07;;
73104;SDS011;61296;50.526;30.792;2024-01-30T18:38:51;29.60;;;11.23;;
73104;SDS011;61296;50.526;30.792;2024-01-30T18:54:28;26.63;;;11.35;;
73104;SDS011;61296;50.526;30.792;2024-01-30T19:10:00;22.10;;;9.15;;
73104;SDS011;61296;50.526;30.792;2024-01-30T19:25:33;22.95;;;10.18;;
73104;SDS011;61296;50.526;30.792;2024-01-30T19:41:11;25.92;;;10.98;;
73104;SDS011;61296;50.526;30.792;2024-01-30T19:56:44;24.13;;;10.57;;
73104;SDS011;61296;50.526;30.792;2024-01-30T20:12:18;25.08;;;10.88;;
73104;SDS011;61296;50.526;30.792;2024-01-30T20:27:51;25.25;;;10.52;;
73104;SDS011;61296;50.526;30.792;2024-01-30T20:43:26;22.10;;;9.38;;
73104;SDS011;61296;50.526;30.792;2024-01-30T20:58:59;24.65;;;10.57;;
73104;SDS011;61296;50.526;30.792;2024-01-30T21:14:33;19.98;;;8.65;;
73104;SDS011;61296;50.526;30.792;2024-01-30T21:30:06;21.92;;;8.50;;
73104;SDS011;61296;50.526;30.792;2024-01-30T21:45:39;17.48;;;8.43;;
73104;SDS011;61296;50.526;30.792;2024-01-30T22:01:13;17.80;;;8.35;;
73104;SDS011;61296;50.526;30.792;2024-01-30T22:16:46;19.60;;;8.95;;
73104;SDS011;61296;50.526;30.792;2024-01-30T22:32:19;18.08;;;8.23;;
73104;SDS011;61296;50.526;30.792;2024-01-30T22:47:52;18.63;;;8.43;;
73104;SDS011;61296;50.526;30.792;2024-01-30T23:03:25;24.92;;;9.60;;
73104;SDS011;61296;50.526;30.792;2024-01-30T23:18:58;23.05;;;9.07;;
73104;SDS011;61296;50.526;30.792;2024-01-30T23:34:31;21.85;;;9.10;;
73104;SDS011;61296;50.526;30.792;2024-01-30T23:50:04;17.92;;;7.80;;
